createdAt,value
2023-12-10T00:01:48.562Z,9.50
2023-12-10T00:04:15.687Z,9.50
2023-12-10T00:06:42.717Z,9.50
2023-12-10T00:09:09.715Z,9.50
2023-12-10T00:11:37.385Z,9.50
2023-12-10T00:14:04.665Z,9.50
2023-12-10T00:16:31.586Z,9.50
2023-12-10T00:18:59.295Z,9.50
2023-12-10T00:21:26.474Z,9.50
2023-12-10T00:23:53.672Z,9.60
2023-12-10T00:26:20.698Z,9.50
2023-12-10T00:28:47.709Z,9.50
2023-12-10T00:31:14.800Z,9.50
2023-12-10T00:33:42.428Z,9.50
2023-12-10T00:36:10.289Z,9.50
2023-12-10T00:38:39.448Z,9.50
2023-12-10T00:41:06.757Z,9.50
2023-12-10T00:43:33.962Z,9.40
2023-12-10T00:46:01.169Z,9.50
2023-12-10T00:48:28.539Z,9.40
2023-12-10T00:50:55.750Z,9.40
2023-12-10T00:53:23.027Z,9.40
2023-12-10T00:55:50.007Z,9.40
2023-12-10T00:58:17.190Z,9.40
2023-12-10T01:00:44.246Z,9.40
2023-12-10T01:03:11.495Z,9.50
2023-12-10T01:05:38.622Z,9.60
2023-12-10T01:08:05.828Z,9.60
2023-12-10T01:10:32.775Z,9.70
2023-12-10T01:12:59.811Z,9.80
2023-12-10T01:15:33.178Z,9.90
2023-12-10T01:18:02.318Z,10.00
2023-12-10T01:20:30.815Z,10.00
2023-12-10T01:22:58.532Z,10.00
2023-12-10T01:25:26.525Z,10.10
2023-12-10T01:27:56.990Z,10.10
2023-12-10T01:30:26.832Z,10.20
2023-12-10T01:32:57.471Z,10.20
2023-12-10T01:35:24.883Z,10.20
2023-12-10T01:37:52.720Z,10.30
2023-12-10T01:40:20.715Z,10.30
2023-12-10T01:42:48.283Z,10.30
2023-12-10T01:45:15.587Z,10.30
2023-12-10T01:47:44.019Z,10.30
2023-12-10T01:50:12.860Z,10.30
2023-12-10T01:52:50.192Z,10.20
2023-12-10T01:55:17.924Z,10.20
2023-12-10T01:57:45.142Z,10.20
2023-12-10T02:00:13.449Z,10.20
2023-12-10T02:02:41.641Z,10.10
2023-12-10T02:05:10.089Z,10.00
2023-12-10T02:07:38.353Z,10.00
2023-12-10T02:10:07.584Z,10.00
2023-12-10T02:12:35.820Z,10.00
2023-12-10T02:15:20.258Z,10.00
2023-12-10T02:17:49.004Z,9.90
2023-12-10T02:20:17.353Z,9.90
2023-12-10T02:23:00.132Z,9.80
2023-12-10T02:25:37.889Z,9.80
2023-12-10T02:28:06.514Z,9.80
2023-12-10T02:30:34.548Z,9.80
2023-12-10T02:33:02.570Z,9.80
2023-12-10T02:35:30.118Z,9.80
2023-12-10T02:37:57.173Z,9.80
2023-12-10T02:40:24.532Z,9.80
2023-12-10T02:42:51.852Z,9.80
2023-12-10T02:45:19.153Z,9.80
2023-12-10T02:47:46.639Z,9.70
2023-12-10T02:54:26.220Z,9.70
2023-12-10T02:56:53.435Z,9.60
2023-12-10T02:59:20.479Z,9.50
2023-12-10T03:01:47.741Z,9.50
2023-12-10T03:04:14.694Z,9.50
2023-12-10T03:06:42.082Z,9.40
2023-12-10T03:09:09.922Z,9.40
2023-12-10T03:11:37.467Z,9.40
2023-12-10T03:14:05.694Z,9.30
2023-12-10T03:16:32.924Z,9.30
2023-12-10T03:19:00.167Z,9.20
2023-12-10T03:21:27.545Z,9.20
2023-12-10T03:23:56.849Z,9.20
2023-12-10T03:26:24.126Z,9.10
2023-12-10T03:28:51.067Z,9.10
2023-12-10T03:31:18.305Z,9.10
2023-12-10T03:33:45.567Z,9.10
2023-12-10T03:36:13.040Z,9.10
2023-12-10T03:38:40.154Z,9.00
2023-12-10T03:41:07.167Z,9.00
2023-12-10T03:43:34.216Z,9.00
2023-12-10T03:46:01.286Z,9.00
2023-12-10T03:48:28.478Z,9.00
2023-12-10T03:50:55.437Z,9.00
2023-12-10T03:53:22.528Z,9.00
2023-12-10T03:55:49.876Z,9.00
2023-12-10T03:58:16.918Z,9.00
2023-12-10T04:00:44.717Z,8.90
2023-12-10T04:03:11.989Z,8.90
2023-12-10T04:05:39.153Z,8.90
2023-12-10T04:08:06.102Z,8.90
2023-12-10T04:10:33.055Z,8.90
2023-12-10T04:13:00.149Z,8.90
2023-12-10T04:15:28.077Z,8.90
2023-12-10T04:17:55.196Z,8.90
2023-12-10T04:20:22.214Z,8.80
2023-12-10T04:22:49.280Z,8.80
2023-12-10T04:25:16.273Z,8.80
2023-12-10T04:27:43.767Z,8.80
2023-12-10T04:30:11.661Z,8.80
2023-12-10T04:32:38.701Z,8.80
2023-12-10T04:35:06.120Z,8.80
2023-12-10T04:37:33.340Z,8.80
2023-12-10T04:40:00.354Z,8.80
2023-12-10T04:42:28.121Z,8.80
2023-12-10T04:44:56.636Z,8.80
2023-12-10T04:47:23.604Z,8.80
2023-12-10T04:49:51.107Z,8.80
2023-12-10T04:52:19.352Z,8.80
2023-12-10T04:54:46.629Z,8.80
2023-12-10T04:57:15.485Z,8.80
2023-12-10T04:59:43.414Z,8.80
2023-12-10T05:02:10.664Z,8.80
2023-12-10T05:04:37.636Z,8.80
2023-12-10T05:07:04.711Z,8.80
2023-12-10T05:09:33.628Z,8.80
2023-12-10T05:12:00.792Z,8.80
2023-12-10T05:14:27.743Z,8.70
2023-12-10T05:16:54.751Z,8.70
2023-12-10T05:19:21.854Z,8.70
2023-12-10T05:21:48.981Z,8.60
2023-12-10T05:24:16.017Z,8.60
2023-12-10T05:26:43.054Z,8.60
2023-12-10T05:29:10.632Z,8.60
2023-12-10T05:31:37.572Z,8.60
2023-12-10T05:34:04.523Z,8.60
2023-12-10T05:36:31.692Z,8.60
2023-12-10T05:38:58.972Z,8.60
2023-12-10T05:41:25.877Z,8.60
2023-12-10T05:43:52.851Z,8.60
2023-12-10T05:46:20.098Z,8.60
2023-12-10T05:48:47.184Z,8.60
2023-12-10T05:51:14.308Z,8.60
2023-12-10T05:53:41.275Z,8.60
2023-12-10T05:56:09.187Z,8.70
2023-12-10T05:58:36.862Z,8.60
2023-12-10T06:01:04.212Z,8.60
2023-12-10T06:03:32.002Z,8.70
2023-12-10T06:05:59.123Z,8.70
2023-12-10T06:08:26.602Z,8.60
2023-12-10T06:10:53.596Z,8.70
2023-12-10T06:13:21.093Z,8.70
2023-12-10T06:15:48.345Z,8.70
2023-12-10T06:18:15.640Z,8.70
2023-12-10T06:20:42.802Z,8.70
2023-12-10T06:23:09.876Z,8.70
2023-12-10T06:25:36.872Z,8.70
2023-12-10T06:28:04.043Z,8.70
2023-12-10T06:30:31.079Z,8.70
2023-12-10T06:32:58.249Z,8.70
2023-12-10T06:35:25.457Z,8.70
2023-12-10T06:37:52.410Z,8.70
2023-12-10T06:40:19.367Z,8.70
2023-12-10T06:42:46.365Z,8.70
2023-12-10T06:45:14.393Z,8.70
2023-12-10T06:47:42.178Z,8.70
2023-12-10T06:50:09.817Z,8.80
2023-12-10T06:52:36.836Z,8.80
2023-12-10T06:55:04.190Z,8.80
2023-12-10T06:57:31.258Z,8.90
2023-12-10T06:59:58.276Z,9.00
2023-12-10T07:02:25.305Z,9.00
2023-12-10T07:04:52.444Z,9.00
2023-12-10T07:07:19.385Z,9.00
2023-12-10T07:09:46.377Z,9.10
2023-12-10T07:12:13.421Z,9.10
2023-12-10T07:14:40.524Z,9.10
2023-12-10T07:17:08.212Z,9.20
2023-12-10T07:19:35.347Z,9.20
2023-12-10T07:22:02.633Z,9.30
2023-12-10T07:24:31.347Z,9.30
2023-12-10T07:26:58.534Z,9.40
2023-12-10T07:29:25.758Z,9.40
2023-12-10T07:31:52.779Z,9.40
2023-12-10T07:34:19.957Z,9.40
2023-12-10T07:36:47.243Z,9.50
2023-12-10T07:39:14.650Z,9.50
2023-12-10T07:41:41.746Z,9.50
2023-12-10T07:44:08.801Z,9.50
2023-12-10T07:46:36.057Z,9.50
2023-12-10T07:49:03.926Z,9.50
2023-12-10T07:51:31.012Z,9.50
2023-12-10T07:53:58.056Z,9.50
2023-12-10T07:56:25.037Z,9.50
2023-12-10T07:58:52.262Z,9.60
2023-12-10T08:01:19.640Z,9.60
2023-12-10T08:03:47.329Z,9.60
2023-12-10T08:06:14.473Z,9.60
2023-12-10T08:08:41.400Z,9.60
2023-12-10T08:11:11.552Z,9.60
2023-12-10T08:13:38.708Z,9.50
2023-12-10T08:16:06.455Z,9.60
2023-12-10T08:18:33.695Z,9.50
2023-12-10T08:21:02.472Z,9.60
2023-12-10T08:23:29.451Z,9.60
2023-12-10T08:25:56.423Z,9.70
2023-12-10T08:28:23.420Z,9.80
2023-12-10T08:30:50.516Z,9.80
2023-12-10T08:33:17.711Z,9.90
2023-12-10T08:35:44.812Z,10.00
2023-12-10T08:38:11.782Z,10.00
2023-12-10T08:40:38.771Z,10.00
2023-12-10T08:43:05.872Z,10.00
2023-12-10T08:45:34.898Z,10.10
2023-12-10T08:48:02.424Z,10.10
2023-12-10T08:50:29.651Z,10.10
2023-12-10T08:52:56.623Z,10.10
2023-12-10T08:55:23.602Z,10.20
2023-12-10T08:57:51.203Z,10.30
2023-12-10T09:00:18.564Z,10.40
2023-12-10T09:02:45.597Z,10.40
2023-12-10T09:05:12.982Z,10.50
2023-12-10T09:07:39.982Z,10.60
2023-12-10T09:10:12.893Z,10.60
2023-12-10T09:12:40.891Z,10.60
2023-12-10T09:15:09.100Z,10.60
2023-12-10T09:17:36.495Z,10.60
2023-12-10T09:20:05.654Z,10.60
2023-12-10T09:22:33.308Z,10.50
2023-12-10T09:25:01.009Z,10.50
2023-12-10T09:27:28.290Z,10.50
2023-12-10T09:29:55.401Z,10.50
2023-12-10T09:32:25.183Z,10.50
2023-12-10T09:34:52.700Z,10.60
2023-12-10T09:37:19.845Z,10.70
2023-12-10T09:39:47.261Z,10.80
2023-12-10T09:42:14.474Z,10.90
2023-12-10T09:44:41.470Z,11.00
2023-12-10T09:47:18.253Z,11.10
2023-12-10T09:49:48.801Z,11.20
2023-12-10T09:52:15.827Z,11.30
2023-12-10T09:54:43.487Z,11.40
2023-12-10T09:57:12.916Z,11.50
2023-12-10T09:59:40.628Z,11.50
2023-12-10T10:02:08.637Z,11.60
2023-12-10T10:04:35.981Z,11.60
2023-12-10T10:07:06.869Z,11.60
2023-12-10T10:09:38.435Z,11.60
2023-12-10T10:12:06.898Z,11.60
2023-12-10T10:14:33.917Z,11.60
2023-12-10T10:17:01.441Z,11.60
2023-12-10T10:19:29.450Z,11.70
2023-12-10T10:21:56.596Z,11.70
2023-12-10T10:24:26.810Z,11.80
2023-12-10T10:26:54.923Z,11.80
2023-12-10T10:29:23.787Z,11.90
2023-12-10T10:31:53.573Z,11.90
2023-12-10T10:34:22.013Z,11.90
2023-12-10T10:36:50.361Z,11.90
2023-12-10T10:39:17.441Z,12.00
2023-12-10T10:41:44.658Z,12.00
2023-12-10T10:44:12.150Z,11.90
2023-12-10T10:46:39.199Z,11.90
2023-12-10T10:49:06.606Z,11.90
2023-12-10T10:51:34.169Z,11.80
2023-12-10T10:54:05.272Z,11.80
2023-12-10T10:56:33.272Z,11.70
2023-12-10T10:59:01.533Z,11.70
2023-12-10T11:01:44.412Z,11.70
2023-12-10T11:04:17.038Z,11.70
2023-12-10T11:06:48.325Z,11.80
2023-12-10T11:09:17.877Z,11.80
2023-12-10T11:11:45.308Z,11.80
2023-12-10T11:14:23.528Z,11.80
2023-12-10T11:17:03.716Z,11.90
2023-12-10T11:19:34.139Z,11.90
2023-12-10T11:22:03.156Z,12.00
2023-12-10T11:24:31.168Z,12.00
2023-12-10T11:26:59.812Z,12.10
2023-12-10T11:29:26.909Z,12.20
2023-12-10T11:31:54.004Z,12.20
2023-12-10T11:34:21.150Z,12.30
2023-12-10T11:36:51.261Z,12.30
2023-12-10T11:39:18.677Z,12.40
2023-12-10T11:41:56.244Z,12.40
2023-12-10T11:44:32.102Z,12.40
2023-12-10T11:47:01.656Z,12.40
2023-12-10T11:49:28.744Z,12.40
2023-12-10T11:51:55.763Z,12.30
2023-12-10T11:54:22.950Z,12.30
2023-12-10T11:56:50.048Z,12.30
2023-12-10T11:59:18.369Z,12.40
2023-12-10T12:01:47.844Z,12.40
2023-12-10T12:04:16.079Z,12.40
2023-12-10T12:06:44.754Z,12.40
2023-12-10T12:09:18.953Z,12.40
2023-12-10T12:11:46.109Z,12.40
2023-12-10T12:14:17.366Z,12.50
2023-12-10T12:16:44.939Z,12.50
2023-12-10T12:19:12.432Z,12.50
2023-12-10T12:21:39.647Z,12.50
2023-12-10T12:24:08.448Z,12.50
2023-12-10T12:26:38.378Z,12.50
2023-12-10T12:29:05.716Z,12.50
2023-12-10T12:31:32.824Z,12.50
2023-12-10T12:33:59.871Z,12.50
2023-12-10T12:36:27.252Z,12.50
2023-12-10T12:38:54.390Z,12.50
2023-12-10T12:41:21.382Z,12.60
2023-12-10T12:43:48.404Z,12.60
2023-12-10T12:46:18.177Z,12.60
2023-12-10T12:48:45.704Z,12.60
2023-12-10T12:51:12.935Z,12.70
2023-12-10T12:54:10.700Z,12.70
2023-12-10T12:56:27.840Z,12.70
2023-12-10T12:58:55.200Z,12.80
2023-12-10T13:01:22.785Z,12.80
2023-12-10T13:03:50.037Z,12.80
2023-12-10T13:06:17.861Z,12.70
2023-12-10T13:08:44.999Z,12.70
2023-12-10T13:11:12.596Z,12.70
2023-12-10T13:13:39.716Z,12.60
2023-12-10T13:16:07.660Z,12.60
2023-12-10T13:18:34.857Z,12.50
2023-12-10T13:21:09.668Z,12.50
2023-12-10T13:23:38.001Z,12.50
2023-12-10T13:26:05.133Z,12.50
2023-12-10T13:28:33.223Z,12.50
2023-12-10T13:31:00.409Z,12.40
2023-12-10T13:33:27.722Z,12.40
2023-12-10T13:35:54.801Z,12.40
2023-12-10T13:38:21.787Z,12.40
2023-12-10T13:40:48.952Z,12.50
2023-12-10T13:43:16.171Z,12.50
2023-12-10T13:45:43.974Z,12.50
2023-12-10T13:48:11.117Z,12.60
2023-12-10T13:50:38.169Z,12.60
2023-12-10T13:53:06.091Z,12.60
2023-12-10T13:55:33.261Z,12.60
2023-12-10T13:58:00.337Z,12.70
2023-12-10T14:00:27.912Z,12.70
2023-12-10T14:02:55.065Z,12.70
2023-12-10T14:05:22.164Z,12.70
2023-12-10T14:07:50.126Z,12.70
2023-12-10T14:10:17.992Z,12.60
2023-12-10T14:12:45.223Z,12.50
2023-12-10T14:15:12.303Z,12.50
2023-12-10T14:17:39.881Z,12.50
2023-12-10T14:20:07.618Z,12.40
2023-12-10T14:22:36.290Z,12.40
2023-12-10T14:25:04.289Z,12.40
2023-12-10T14:27:31.888Z,12.30
2023-12-10T14:29:59.383Z,12.30
2023-12-10T14:32:26.675Z,12.20
2023-12-10T14:34:53.935Z,12.20
2023-12-10T14:37:20.948Z,12.20
2023-12-10T14:39:48.302Z,12.10
2023-12-10T14:42:15.478Z,12.10
2023-12-10T14:44:42.594Z,12.00
2023-12-10T14:47:09.535Z,12.00
2023-12-10T14:49:36.529Z,12.00
2023-12-10T14:52:03.528Z,12.00
2023-12-10T14:54:31.643Z,11.90
2023-12-10T14:57:07.300Z,11.90
2023-12-10T14:59:34.547Z,11.90
2023-12-10T15:02:09.348Z,11.90
2023-12-10T15:04:39.946Z,11.80
2023-12-10T15:07:07.385Z,11.80
2023-12-10T15:09:34.642Z,11.70
2023-12-10T15:12:01.714Z,11.70
2023-12-10T15:14:28.812Z,11.70
2023-12-10T15:16:57.253Z,11.70
2023-12-10T15:19:27.761Z,11.60
2023-12-10T15:21:54.933Z,11.60
2023-12-10T15:24:22.121Z,11.50
2023-12-10T15:26:49.219Z,11.50
2023-12-10T15:29:16.215Z,11.40
2023-12-10T15:31:43.304Z,11.40
2023-12-10T15:34:10.391Z,11.40
2023-12-10T15:36:37.402Z,11.30
2023-12-10T15:39:05.222Z,11.30
2023-12-10T15:41:32.319Z,11.30
2023-12-10T15:43:59.349Z,11.30
2023-12-10T15:46:26.307Z,11.20
2023-12-10T15:48:54.375Z,11.20
2023-12-10T15:51:22.030Z,11.20
2023-12-10T15:53:49.231Z,11.20
2023-12-10T15:56:16.285Z,11.10
2023-12-10T15:58:43.282Z,11.20
2023-12-10T16:01:10.494Z,11.10
2023-12-10T16:03:38.617Z,11.10
2023-12-10T16:06:06.640Z,11.20
2023-12-10T16:08:33.920Z,11.10
2023-12-10T16:11:01.119Z,11.20
2023-12-10T16:13:28.419Z,11.20
2023-12-10T16:15:55.661Z,11.20
2023-12-10T16:18:25.959Z,11.20
2023-12-10T16:20:53.761Z,11.10
2023-12-10T16:23:20.742Z,11.10
2023-12-10T16:25:47.915Z,11.10
2023-12-10T16:28:15.299Z,11.10
2023-12-10T16:30:42.411Z,11.00
2023-12-10T16:33:09.407Z,11.10
2023-12-10T16:35:36.352Z,11.10
2023-12-10T16:38:03.474Z,11.00
2023-12-10T16:40:30.442Z,11.10
2023-12-10T16:42:57.754Z,11.10
2023-12-10T16:45:25.422Z,11.10
2023-12-10T16:47:52.530Z,11.10
2023-12-10T16:50:19.666Z,11.10
2023-12-10T16:52:46.605Z,11.20
2023-12-10T16:55:15.515Z,11.20
2023-12-10T16:57:42.868Z,11.20
2023-12-10T17:00:11.343Z,11.20
2023-12-10T17:02:39.574Z,11.20
2023-12-10T17:05:07.874Z,11.20
2023-12-10T17:07:35.053Z,11.30
2023-12-10T17:10:02.422Z,11.30
2023-12-10T17:12:29.531Z,11.40
2023-12-10T17:14:58.125Z,11.40
2023-12-10T17:17:25.561Z,11.40
2023-12-10T17:19:54.370Z,11.50
2023-12-10T17:22:21.678Z,11.40
2023-12-10T17:24:48.820Z,11.50
2023-12-10T17:27:18.790Z,11.50
2023-12-10T17:29:45.784Z,11.50
2023-12-10T17:32:12.774Z,11.50
2023-12-10T17:34:40.007Z,11.60
2023-12-10T17:37:07.366Z,11.60
2023-12-10T17:39:34.825Z,11.60
2023-12-10T17:42:01.947Z,11.60
2023-12-10T17:44:29.782Z,11.60
2023-12-10T17:46:57.296Z,11.70
2023-12-10T17:49:24.590Z,11.70
2023-12-10T17:51:53.381Z,11.80
2023-12-10T17:54:21.059Z,11.80
2023-12-10T17:56:48.451Z,11.90
2023-12-10T17:59:15.458Z,12.00
2023-12-10T18:01:42.883Z,12.10
2023-12-10T18:04:10.199Z,12.10
2023-12-10T18:06:37.824Z,12.20
2023-12-10T18:09:05.821Z,12.20
2023-12-10T18:11:32.929Z,12.30
2023-12-10T18:14:00.016Z,12.30
2023-12-10T18:16:26.999Z,12.40
2023-12-10T18:18:54.660Z,12.50
2023-12-10T18:21:22.407Z,12.50
2023-12-10T18:23:49.433Z,12.50
2023-12-10T18:26:16.977Z,12.60
2023-12-10T18:28:44.911Z,12.60
2023-12-10T18:31:12.342Z,12.60
2023-12-10T18:33:39.478Z,12.60
2023-12-10T18:36:07.208Z,12.60
2023-12-10T18:38:34.910Z,12.60
2023-12-10T18:41:03.743Z,12.60
2023-12-10T18:43:31.239Z,12.60
2023-12-10T18:45:58.358Z,12.60
2023-12-10T18:48:25.350Z,12.60
2023-12-10T18:50:52.958Z,12.60
2023-12-10T18:53:20.051Z,12.60
2023-12-10T18:55:47.602Z,12.60
2023-12-10T18:58:14.758Z,12.60
2023-12-10T19:00:42.833Z,12.60
2023-12-10T19:03:10.719Z,12.70
2023-12-10T19:05:37.805Z,12.70
2023-12-10T19:08:05.016Z,12.70
2023-12-10T19:10:33.800Z,12.80
2023-12-10T19:13:00.961Z,12.80
2023-12-10T19:15:27.911Z,12.80
2023-12-10T19:17:57.024Z,12.80
2023-12-10T19:20:28.275Z,12.90
2023-12-10T19:22:55.272Z,12.90
2023-12-10T19:25:22.642Z,12.90
2023-12-10T19:27:49.718Z,13.00
2023-12-10T19:30:16.955Z,13.00
2023-12-10T19:32:44.264Z,13.00
2023-12-10T19:35:11.544Z,13.00
2023-12-10T19:37:40.370Z,13.00
2023-12-10T19:40:09.094Z,13.00
2023-12-10T19:42:36.216Z,13.00
2023-12-10T19:45:04.255Z,13.00
2023-12-10T19:47:31.726Z,13.00
2023-12-10T19:49:59.072Z,13.00
2023-12-10T19:52:26.077Z,13.00
2023-12-10T19:54:53.204Z,13.10
2023-12-10T19:57:20.582Z,13.10
2023-12-10T19:59:47.731Z,13.10
2023-12-10T20:02:14.707Z,13.10
2023-12-10T20:04:43.529Z,13.10
2023-12-10T20:07:10.591Z,13.10
2023-12-10T20:09:37.756Z,13.10
2023-12-10T20:12:04.948Z,13.00
2023-12-10T20:14:34.247Z,13.10
2023-12-10T20:17:01.286Z,13.10
2023-12-10T20:19:28.494Z,13.00
2023-12-10T20:21:55.707Z,13.00
2023-12-10T20:24:31.088Z,13.00
2023-12-10T20:27:03.690Z,13.00
2023-12-10T20:29:30.834Z,13.00
2023-12-10T20:31:57.924Z,12.90
2023-12-10T20:34:30.306Z,12.80
2023-12-10T20:37:02.393Z,12.80
2023-12-10T20:39:29.546Z,12.80
2023-12-10T20:41:56.750Z,12.70
2023-12-10T20:44:23.975Z,12.70
2023-12-10T20:46:51.231Z,12.60
2023-12-10T20:49:18.996Z,12.60
2023-12-10T20:51:48.329Z,12.60
2023-12-10T20:54:16.129Z,12.60
2023-12-10T20:56:43.253Z,12.50
2023-12-10T20:59:10.762Z,12.50
2023-12-10T21:01:38.113Z,12.50
2023-12-10T21:04:05.333Z,12.40
2023-12-10T21:06:33.029Z,12.40
2023-12-10T21:09:00.422Z,12.40
2023-12-10T21:11:27.443Z,12.30
2023-12-10T21:13:54.767Z,12.20
2023-12-10T21:16:22.094Z,11.90
2023-12-10T21:18:49.549Z,11.60
2023-12-10T21:21:16.998Z,11.50
2023-12-10T21:23:44.333Z,11.40
2023-12-10T21:26:11.506Z,11.40
2023-12-10T21:28:38.597Z,11.50
2023-12-10T21:31:07.727Z,11.60
2023-12-10T21:33:35.087Z,11.70
2023-12-10T21:36:02.287Z,11.70
2023-12-10T21:38:29.508Z,11.90
2023-12-10T21:40:56.629Z,11.90
2023-12-10T21:43:23.790Z,11.90
2023-12-10T21:45:50.798Z,12.00
2023-12-10T21:48:17.947Z,12.10
2023-12-10T21:50:47.797Z,12.10
2023-12-10T21:53:17.654Z,12.10
2023-12-10T21:55:45.309Z,12.10
2023-12-10T21:58:12.485Z,12.10
2023-12-10T22:00:39.644Z,12.20
2023-12-10T22:03:06.852Z,12.20
2023-12-10T22:05:34.081Z,12.20
2023-12-10T22:08:01.113Z,12.20
2023-12-10T22:10:28.312Z,12.20
2023-12-10T22:12:55.441Z,12.30
2023-12-10T22:15:22.788Z,12.20
2023-12-10T22:17:50.653Z,12.20
2023-12-10T22:20:17.925Z,12.20
2023-12-10T22:22:45.421Z,12.20
2023-12-10T22:25:14.164Z,12.20
2023-12-10T22:27:43.388Z,12.10
2023-12-10T22:30:10.857Z,12.10
2023-12-10T22:32:38.016Z,12.10
2023-12-10T22:35:05.578Z,12.10
2023-12-10T22:37:32.985Z,12.10
2023-12-10T22:40:00.304Z,12.10
2023-12-10T22:42:27.388Z,12.10
2023-12-10T22:44:54.568Z,12.00
2023-12-10T22:47:21.936Z,12.00
2023-12-10T22:49:49.490Z,12.10
2023-12-10T22:52:16.635Z,12.00
2023-12-10T22:54:44.160Z,12.10
2023-12-10T22:57:11.692Z,12.00
2023-12-10T22:59:38.636Z,12.00
2023-12-10T23:02:05.777Z,12.00
2023-12-10T23:04:32.893Z,12.00
2023-12-10T23:07:00.043Z,12.00
2023-12-10T23:09:27.534Z,12.00
2023-12-10T23:11:54.693Z,12.00
2023-12-10T23:14:21.774Z,12.00
2023-12-10T23:16:49.314Z,12.00
2023-12-10T23:19:16.447Z,12.00
2023-12-10T23:21:43.514Z,12.00
2023-12-10T23:24:10.588Z,12.00
2023-12-10T23:26:37.657Z,12.10
2023-12-10T23:29:05.880Z,12.00
2023-12-10T23:31:33.212Z,12.00
2023-12-10T23:34:01.085Z,12.00
2023-12-10T23:36:28.212Z,12.10
2023-12-10T23:38:55.258Z,12.10
2023-12-10T23:41:22.251Z,12.10
2023-12-10T23:43:49.615Z,12.10
2023-12-10T23:46:16.643Z,12.10
2023-12-10T23:48:43.681Z,12.10
2023-12-10T23:51:20.858Z,12.10
2023-12-10T23:53:48.305Z,12.10
2023-12-10T23:56:15.358Z,12.20
2023-12-10T23:58:42.440Z,12.20
